Kiama Bowling Club, New South Wales

9:52 PM AEDT on March 27, 2015 (GMT +1100)
Kiama | | Change Station
CLOSE
Current Station
Personal Weather Station
Location: Kiama, NEW SOUTH WALES
Elevation: 95 ft
Nearby Weather Stations

Elev 95 ft 34.68 °S, 150.85 °E | Updated 3 seconds ago

Clear
Clear
67.5 °F
Feels Like 67.5 °F
N
0.4
Wind Variable Wind from SW
Gusts 2.5 mph

Today
High -- | Low -- °F
--% Chance of Precip.
Yesterday
High -- | Low -- °F
Precip. -- in
7:04 AM 6:59 PM
First Quarter, 51% visible
Pressure 30.09 in
Visibility -9999.0 miles
Clouds
Dew Point 43 °F
Humidity 41%
Rainfall 0.00 in
Snow Depth Not available.
UV 0.0 out of 12
Pollen Not available.
Air Quality Not available.
Flu Activity Not available.
METAR YSSY 271030Z 26007KT CAVOK 21/03 Q1019 NOSIG

More Conditions Fewer Conditions

Pressure 30.09 in
Visibility -9999.0 miles
Clouds
Dew Point 43 °F
Humidity 41%
Rainfall 0.00 in
Snow Depth Not available.
UV 0.0 out of 12
Pollen Not available.
Air Quality Not available.
Flu Activity Not available.
METAR YSSY 271030Z 26007KT CAVOK 21/03 Q1019 NOSIG

More Conditions Fewer Conditions

10-Day Weather Forecast

Almanac

Astronomy

Mar. 27, 2015 Rise Set
Actual Time
Civil Twilight
Nautical Twilight
Astronomical Twilight
Moon
Length of Visible Light
Length of Day
Tomorrow will be .
, % of the Moon is Illuminated

Today's Extremes

Country Highs Country Lows

Community

WunderPhotos

Upload Photos

1,808,706 photos uploaded!

WunderBlogs® & News

Nearby

Air Quality

  Air Quality AQ Index Pollutant
Not available.

Snow Depth

Station Depth Elevation

Earthquake Activity

City Distance Mag. Time & Date
Minimum magnitude displayed is 2.5.

Coastal Water Temperatures

Place Temperature

Stations

Nearby Weather Stations

Station Location Temp. Windchill Dew Point Humidity Wind Precip. Elev Updated Type